Time;durP1;ratioP1;P1;durP2;ratioP2;P2;SDS_P1;SDS_P2;PMS_P1;PMS_P2;Temp;Humidity;BMP_temperature;BMP_pressure;BME280_temperature;BME280_humidity;BME280_pressure;Samples;Min_cycle;Max_cycle;Signal;HPM_P1;HPM_P2
2022/01/12 00:01:16;;;;;;;14.60;7.28;;;;;;;-2.10;100.00;96503.78;4990432;28;20105;-64
2022/01/12 00:03:43;;;;;;;13.32;7.57;;;;;;;-2.07;100.00;96503.47;4990167;28;20527;-63
2022/01/12 00:06:11;;;;;;;12.27;6.78;;;;;;;-2.06;100.00;96497.28;4990379;28;20079;-63
2022/01/12 00:08:37;;;;;;;12.07;7.30;;;;;;;-2.05;100.00;96504.16;4988971;28;20208;-64
2022/01/12 00:11:06;;;;;;;11.50;6.68;;;;;;;-2.02;100.00;96496.94;4990390;28;20027;-64
2022/01/12 00:13:34;;;;;;;11.13;6.93;;;;;;;-2.03;100.00;96492.69;4988770;28;20066;-63
2022/01/12 00:16:01;;;;;;;12.55;7.10;;;;;;;-2.03;100.00;96483.00;4989509;28;20026;-61
2022/01/12 00:18:28;;;;;;;13.18;7.70;;;;;;;-2.04;100.00;96489.22;4989736;28;20508;-64
2022/01/12 00:20:58;;;;;;;12.23;7.10;;;;;;;-2.03;100.00;96490.06;4989992;28;20527;-63
2022/01/12 00:23:29;;;;;;;10.57;6.93;;;;;;;-2.02;100.00;96491.72;4988480;28;20036;-64
2022/01/12 00:33:57;;;;;;;11.35;7.05;;;;;;;-1.98;100.00;96475.47;4989773;28;20696;-64
2022/01/12 00:36:22;;;;;;;12.60;6.90;;;;;;;-1.96;100.00;96481.41;4989799;28;20026;-64
2022/01/12 00:38:47;;;;;;;11.25;7.03;;;;;;;-1.93;100.00;96475.84;4989774;28;20028;-62
2022/01/12 00:41:18;;;;;;;12.38;7.53;;;;;;;-1.92;100.00;96476.69;4989548;28;20034;-63
2022/01/12 00:43:48;;;;;;;12.82;7.65;;;;;;;-1.92;100.00;96474.06;4989665;28;20477;-59
2022/01/12 00:46:16;;;;;;;13.18;8.02;;;;;;;-1.91;100.00;96467.81;4988288;28;20084;-60
2022/01/12 00:48:45;;;;;;;13.55;7.82;;;;;;;-1.91;100.00;96466.03;4989694;28;20022;-64
2022/01/12 00:51:11;;;;;;;13.57;8.55;;;;;;;-1.90;100.00;96477.34;4989644;28;20026;-60
2022/01/12 00:53:40;;;;;;;12.15;7.80;;;;;;;-1.88;100.00;96468.34;4989184;28;20069;-61
2022/01/12 00:56:06;;;;;;;14.20;7.82;;;;;;;-1.90;100.00;96465.03;4989595;28;20030;-61
2022/01/12 00:58:32;;;;;;;11.40;7.40;;;;;;;-1.87;100.00;96462.09;4989539;28;20034;-60
2022/01/12 01:00:58;;;;;;;14.00;8.07;;;;;;;-1.88;100.00;96459.63;4989410;28;20038;-63
2022/01/12 01:03:23;;;;;;;14.65;7.35;;;;;;;-1.91;100.00;96452.91;4989466;28;20026;-58
2022/01/12 01:05:49;;;;;;;12.15;7.78;;;;;;;-1.91;100.00;96460.78;4989477;28;20026;-61
2022/01/12 01:08:17;;;;;;;11.68;7.05;;;;;;;-1.92;100.00;96447.81;4989344;28;20065;-63
2022/01/12 01:13:08;;;;;;;14.57;8.25;;;;;;;-1.93;100.00;96443.53;4982026;28;20045;-63
2022/01/12 01:15:56;;;;;;;12.68;8.48;;;;;;;-1.96;100.00;96444.63;4989214;28;20019;-62
2022/01/12 01:26:38;;;;;;;13.77;8.02;;;;;;;-2.02;100.00;96445.28;4989408;28;20091;-57
2022/01/12 01:29:04;;;;;;;12.48;7.78;;;;;;;-2.01;100.00;96449.53;4988728;28;20026;-63
2022/01/12 01:31:32;;;;;;;14.60;8.50;;;;;;;-2.04;100.00;96444.59;4989141;28;20037;-63
2022/01/12 01:34:06;;;;;;;13.82;7.78;;;;;;;-2.02;100.00;96458.41;4988845;28;20030;-58
2022/01/12 01:36:35;;;;;;;11.93;7.63;;;;;;;-2.01;100.00;96452.16;4989109;28;20065;-62
2022/01/12 01:39:01;;;;;;;12.75;7.80;;;;;;;-2.05;100.00;96451.66;4989072;28;20387;-60
2022/01/12 01:41:27;;;;;;;13.23;8.20;;;;;;;-2.05;100.00;96450.84;4988874;28;20034;-62
2022/01/12 01:54:41;;;;;;;12.38;7.93;;;;;;;-2.11;100.00;96441.75;4988716;28;20516;-63
2022/01/12 01:57:06;;;;;;;15.40;7.78;;;;;;;-2.12;100.00;96442.72;4988569;28;20038;-63
2022/01/12 01:59:34;;;;;;;13.73;8.00;;;;;;;-2.10;100.00;96437.31;4987661;28;20081;-62
2022/01/12 02:02:00;;;;;;;13.10;8.02;;;;;;;-2.13;100.00;96432.38;4988660;28;20064;-62
2022/01/12 02:04:25;;;;;;;14.18;8.15;;;;;;;-2.16;100.00;96427.47;4988395;28;20022;-62
2022/01/12 02:06:54;;;;;;;13.55;8.25;;;;;;;-2.15;100.00;96429.09;4988721;28;20092;-61
2022/01/12 02:09:22;;;;;;;13.15;7.90;;;;;;;-2.15;100.00;96431.72;4988609;28;20520;-63
2022/01/12 02:11:53;;;;;;;12.82;6.95;;;;;;;-2.17;100.00;96433.66;4987349;28;20465;-61
2022/01/12 02:14:21;;;;;;;12.52;7.43;;;;;;;-2.19;100.00;96435.63;4988446;28;20031;-63
2022/01/12 02:17:02;;;;;;;13.02;8.15;;;;;;;-2.18;100.00;96432.00;4988489;28;20022;-63
2022/01/12 02:19:52;;;;;;;13.05;8.18;;;;;;;-2.18;100.00;96432.84;4987281;28;20076;-63
2022/01/12 02:36:19;;;;;;;11.95;7.50;;;;;;;-2.28;100.00;96439.16;4987514;28;20392;-61
2022/01/12 02:41:30;;;;;;;10.70;6.80;;;;;;;-2.30;100.00;96439.31;4991221;28;20041;-58
2022/01/12 02:54:42;;;;;;;10.75;6.40;;;;;;;-2.27;100.00;96452.16;4991169;28;20187;-59
2022/01/12 02:57:10;;;;;;;11.43;6.35;;;;;;;-2.27;100.00;96446.06;4991373;28;20495;-62
2022/01/12 02:59:36;;;;;;;12.27;7.18;;;;;;;-2.24;100.00;96443.13;4990139;28;20071;-55
2022/01/12 03:04:30;;;;;;;12.75;7.38;;;;;;;-2.23;100.00;96450.03;4991277;28;20033;-55
2022/01/12 03:07:04;;;;;;;12.25;6.93;;;;;;;-2.22;100.00;96456.94;4991099;28;20022;-59
2022/01/12 03:09:30;;;;;;;13.00;7.07;;;;;;;-2.23;100.00;96448.22;4991235;28;20084;-57
2022/01/12 03:11:57;;;;;;;12.05;6.38;;;;;;;-2.22;100.00;96442.00;4991123;28;20026;-60
2022/01/12 03:14:23;;;;;;;12.25;7.20;;;;;;;-2.23;100.00;96442.16;4991133;28;20029;-59
2022/01/12 03:16:48;;;;;;;11.15;7.30;;;;;;;-2.21;100.00;96448.91;4989926;28;20120;-58
2022/01/12 03:19:16;;;;;;;11.77;7.22;;;;;;;-2.24;100.00;96445.75;4991037;28;20502;-58
2022/01/12 03:21:43;;;;;;;11.52;7.22;;;;;;;-2.24;100.00;96449.22;4989631;28;20117;-59
2022/01/12 03:24:09;;;;;;;13.70;7.93;;;;;;;-2.24;100.00;96440.50;4989788;28;20048;-61
2022/01/12 03:26:35;;;;;;;12.90;7.45;;;;;;;-2.20;100.00;96452.34;4990973;28;20034;-60
2022/01/12 03:29:01;;;;;;;12.40;8.20;;;;;;;-2.20;100.00;96454.97;4991008;28;20022;-60
2022/01/12 03:31:31;;;;;;;12.05;7.07;;;;;;;-2.21;100.00;96464.63;4989720;28;20088;-58
2022/01/12 03:34:52;;;;;;;11.60;7.50;;;;;;;-2.21;100.00;96458.56;4970714;28;20029;-58
2022/01/12 03:39:11;;;;;;;12.40;7.93;;;;;;;-2.21;100.00;96467.25;4990849;28;20026;-61
2022/01/12 03:41:38;;;;;;;12.75;8.15;;;;;;;-2.21;100.00;96469.06;4970318;28;20034;-60
2022/01/12 03:44:08;;;;;;;12.07;7.63;;;;;;;-2.20;100.00;96475.97;4989303;28;20072;-59
2022/01/12 03:46:36;;;;;;;12.18;8.25;;;;;;;-2.20;100.00;96487.28;4989453;28;20034;-57
2022/01/12 03:49:03;;;;;;;12.63;7.47;;;;;;;-2.22;100.00;96470.88;4990657;28;20026;-59
2022/01/12 03:51:28;;;;;;;12.10;7.45;;;;;;;-2.21;100.00;96471.69;4989369;28;20049;-56
2022/01/12 03:53:54;;;;;;;12.45;7.88;;;;;;;-2.21;100.00;96466.44;4988990;28;20078;-59
2022/01/12 03:56:19;;;;;;;14.38;7.63;;;;;;;-2.19;100.00;96472.34;4990642;28;20682;-57
2022/01/12 03:58:44;;;;;;;12.50;8.20;;;;;;;-2.17;100.00;96479.13;4990349;28;20462;-56
2022/01/12 04:01:10;;;;;;;11.90;7.80;;;;;;;-2.17;100.00;96476.50;4990292;28;20041;-56
2022/01/12 04:03:43;;;;;;;14.60;8.13;;;;;;;-2.16;100.00;96472.91;4990305;28;20018;-58
2022/01/12 04:08:55;;;;;;;13.70;8.30;;;;;;;-2.19;100.00;96467.94;4989914;28;20030;-61
2022/01/12 04:11:20;;;;;;;12.13;7.68;;;;;;;-2.18;100.00;96468.75;4990151;28;20030;-58
2022/01/12 04:13:48;;;;;;;13.77;7.97;;;;;;;-2.20;100.00;96460.22;4989928;28;20031;-61
2022/01/12 04:16:14;;;;;;;14.20;8.07;;;;;;;-2.19;100.00;96456.59;4990331;28;20136;-60
2022/01/12 04:18:40;;;;;;;12.90;8.23;;;;;;;-2.20;100.00;96457.59;4990134;28;20101;-62
2022/01/12 04:21:09;;;;;;;12.48;8.05;;;;;;;-2.20;100.00;96457.59;4990155;28;20033;-60
2022/01/12 04:23:37;;;;;;;12.02;7.70;;;;;;;-2.20;100.00;96457.59;4988830;28;20026;-59
2022/01/12 04:26:14;;;;;;;13.93;7.63;;;;;;;-2.21;100.00;96459.38;4988665;28;20026;-61
2022/01/12 04:28:43;;;;;;;11.07;7.07;;;;;;;-2.22;100.00;96464.78;4990009;28;20030;-61
2022/01/12 04:31:10;;;;;;;10.73;7.30;;;;;;;-2.24;100.00;96456.25;4988333;28;20037;-61
2022/01/12 04:33:37;;;;;;;12.07;7.40;;;;;;;-2.25;100.00;96452.00;4968783;28;20026;-62
2022/01/12 04:36:04;;;;;;;11.45;7.47;;;;;;;-2.25;100.00;96452.00;4988327;28;20075;-62
2022/01/12 04:38:33;;;;;;;13.88;8.50;;;;;;;-2.27;100.00;96451.31;4989664;28;20586;-62
2022/01/12 04:40:59;;;;;;;15.55;8.25;;;;;;;-2.25;100.00;96459.84;4989833;28;20689;-62
2022/01/12 04:43:26;;;;;;;13.50;8.52;;;;;;;-2.26;100.00;96468.72;4989885;28;20385;-61
2022/01/12 04:50:55;;;;;;;13.68;8.30;;;;;;;-2.25;100.00;96472.97;4989984;28;20042;-61
2022/01/12 04:53:21;;;;;;;12.30;7.78;;;;;;;-2.28;100.00;96471.50;4988100;28;20046;-62
2022/01/12 04:55:48;;;;;;;12.23;8.25;;;;;;;-2.24;100.00;96477.25;4989672;28;20076;-62
2022/01/12 04:58:16;;;;;;;13.05;8.43;;;;;;;-2.28;100.00;96489.88;4989806;28;20030;-61
2022/01/12 05:00:43;;;;;;;12.65;7.95;;;;;;;-2.27;100.00;96488.06;4989593;28;20026;-61
2022/01/12 05:08:52;;;;;;;14.07;8.35;;;;;;;-2.28;100.00;96500.38;4989603;28;20084;-63
2022/01/12 05:14:02;;;;;;;11.82;7.55;;;;;;;-2.30;100.00;96491.78;4988917;28;20038;-61
2022/01/12 05:16:30;;;;;;;11.25;7.60;;;;;;;-2.30;100.00;96490.97;4988077;28;20022;-63
2022/01/12 05:18:56;;;;;;;12.60;8.25;;;;;;;-2.33;100.00;96492.91;4989205;28;20030;-62
2022/01/12 05:21:26;;;;;;;13.35;8.73;;;;;;;-2.31;100.00;96494.56;4988034;28;20022;-63
2022/01/12 05:23:53;;;;;;;14.15;8.73;;;;;;;-2.30;100.00;96502.28;4989134;28;20036;-61
2022/01/12 05:26:18;;;;;;;13.00;8.23;;;;;;;-2.31;100.00;96507.69;4989232;28;20523;-60
2022/01/12 05:28:46;;;;;;;13.55;8.88;;;;;;;-2.31;100.00;96503.25;4989044;28;20022;-60
2022/01/12 05:31:12;;;;;;;13.63;8.60;;;;;;;-2.32;100.00;96501.63;4988091;28;20037;-57
2022/01/12 05:33:46;;;;;;;16.10;8.85;;;;;;;-2.35;100.00;96508.00;4988720;28;20061;-62
2022/01/12 05:36:12;;;;;;;14.50;9.25;;;;;;;-2.35;100.00;96496.69;4988808;28;20109;-58
2022/01/12 05:38:37;;;;;;;14.77;8.70;;;;;;;-2.36;100.00;96498.47;4989086;28;20108;-62
2022/01/12 05:41:06;;;;;;;12.80;8.25;;;;;;;-2.35;100.00;96496.69;4987574;28;20084;-62
2022/01/12 05:43:33;;;;;;;12.95;8.10;;;;;;;-2.36;100.00;96495.84;4987818;28;20038;-61
2022/01/12 05:46:12;;;;;;;13.40;7.88;;;;;;;-2.39;100.00;96492.69;4988771;28;20118;-62
2022/01/12 05:51:26;;;;;;;11.88;7.53;;;;;;;-2.39;100.00;96497.94;4988847;28;20041;-61
2022/01/12 05:53:52;;;;;;;13.25;7.75;;;;;;;-2.40;100.00;96504.16;4988448;28;20043;-61
2022/01/12 05:56:18;;;;;;;14.15;8.63;;;;;;;-2.39;100.00;96503.19;4987503;28;20068;-61
2022/01/12 05:58:43;;;;;;;15.27;9.35;;;;;;;-2.39;100.00;96511.91;4988890;28;20450;-61
2022/01/12 06:01:09;;;;;;;14.27;8.93;;;;;;;-2.40;100.00;96510.22;4988728;28;20080;-62
2022/01/12 06:03:34;;;;;;;15.20;8.85;;;;;;;-2.40;100.00;96522.53;4988689;28;20139;-60
2022/01/12 06:06:00;;;;;;;13.68;8.15;;;;;;;-2.43;100.00;96535.94;4988546;28;20031;-62
2022/01/12 06:08:28;;;;;;;14.70;8.57;;;;;;;-2.39;100.00;96547.78;4987346;28;20099;-59
2022/01/12 06:10:55;;;;;;;13.25;7.93;;;;;;;-2.39;100.00;96545.16;4988620;28;20026;-60
2022/01/12 06:13:20;;;;;;;12.93;7.70;;;;;;;-2.40;100.00;96552.22;4988314;28;20022;-61
2022/01/12 06:15:48;;;;;;;12.63;7.88;;;;;;;-2.43;100.00;96557.75;4989292;28;20400;-62
2022/01/12 06:18:16;;;;;;;13.65;8.15;;;;;;;-2.39;100.00;96561.75;4990684;28;20469;-62
2022/01/12 06:20:41;;;;;;;14.27;7.72;;;;;;;-2.38;100.00;96566.03;4991679;28;20030;-61
2022/01/12 06:23:06;;;;;;;12.10;7.57;;;;;;;-2.39;100.00;96571.41;4991698;28;20500;-60
2022/01/12 06:25:34;;;;;;;12.93;8.45;;;;;;;-2.40;100.00;96582.88;4991908;28;20027;-62
2022/01/12 06:28:21;;;;;;;11.80;7.70;;;;;;;-2.43;100.00;96589.25;4985224;28;20109;-62
2022/01/12 06:33:31;;;;;;;13.27;8.10;;;;;;;-2.44;100.00;96587.59;4990587;28;20122;-62
2022/01/12 06:35:56;;;;;;;11.85;7.68;;;;;;;-2.46;100.00;96592.19;4989439;28;20075;-63
2022/01/12 06:38:22;;;;;;;14.77;8.40;;;;;;;-2.45;100.00;96590.38;4978678;28;20125;-63
2022/01/12 06:40:49;;;;;;;15.88;7.93;;;;;;;-2.47;100.00;96582.66;4985158;28;20037;-59
2022/01/12 06:43:15;;;;;;;14.98;8.43;;;;;;;-2.47;100.00;96574.78;4990189;28;20018;-62
2022/01/12 06:45:41;;;;;;;12.50;8.00;;;;;;;-2.47;100.00;96566.91;4990040;28;20502;-60
2022/01/12 06:48:06;;;;;;;12.65;8.00;;;;;;;-2.46;100.00;96578.22;4986881;28;20301;-62
2022/01/12 06:50:34;;;;;;;12.75;8.07;;;;;;;-2.47;100.00;96592.31;4990665;28;20038;-63
2022/01/12 06:53:00;;;;;;;12.38;7.75;;;;;;;-2.50;100.00;96590.78;4988809;28;20043;-60
2022/01/12 06:55:25;;;;;;;13.40;8.50;;;;;;;-2.51;100.00;96589.16;4990432;28;20392;-60
2022/01/12 06:57:50;;;;;;;11.80;7.40;;;;;;;-2.49;100.00;96589.03;4988434;28;20396;-61
2022/01/12 07:00:18;;;;;;;12.23;7.40;;;;;;;-2.50;100.00;96600.47;4989440;28;20057;-63
2022/01/12 07:02:47;;;;;;;12.10;7.75;;;;;;;-2.51;100.00;96604.06;4990374;28;20046;-61
2022/01/12 07:05:12;;;;;;;11.90;7.50;;;;;;;-2.53;100.00;96606.00;4988592;28;20026;-61
2022/01/12 07:07:40;;;;;;;13.20;8.32;;;;;;;-2.50;100.00;96603.91;4987148;28;20353;-61
2022/01/12 07:10:07;;;;;;;13.20;8.75;;;;;;;-2.49;100.00;96595.09;4998447;28;20018;-62
2022/01/12 07:12:32;;;;;;;14.50;8.15;;;;;;;-2.49;100.00;96599.53;4990536;28;20072;-60
2022/01/12 07:14:57;;;;;;;15.23;9.52;;;;;;;-2.50;100.00;96595.22;4989340;28;20026;-63
2022/01/12 07:17:23;;;;;;;14.95;8.57;;;;;;;-2.47;100.00;96615.94;4973151;28;20030;-61
2022/01/12 07:19:48;;;;;;;13.38;8.75;;;;;;;-2.46;100.00;96621.03;4989181;28;20114;-62
2022/01/12 07:22:13;;;;;;;15.73;8.65;;;;;;;-2.45;100.00;96614.00;4988001;28;20117;-59
2022/01/12 07:24:39;;;;;;;14.98;8.52;;;;;;;-2.45;100.00;96634.97;4989393;28;20073;-61
2022/01/12 07:27:04;;;;;;;13.60;8.77;;;;;;;-2.44;100.00;96615.63;4972927;28;20038;-62
2022/01/12 07:29:30;;;;;;;14.00;8.07;;;;;;;-2.44;100.00;96613.00;4988740;28;20365;-62
2022/01/12 07:31:55;;;;;;;15.52;8.80;;;;;;;-2.44;100.00;96620.88;4987696;28;20523;-62
2022/01/12 07:34:25;;;;;;;14.98;8.98;;;;;;;-2.46;100.00;96630.69;4991562;28;20023;-61
2022/01/12 07:36:53;;;;;;;14.63;8.88;;;;;;;-2.46;100.00;96618.41;4973979;28;20062;-61
2022/01/12 07:39:18;;;;;;;13.75;8.65;;;;;;;-2.43;100.00;96620.72;4982317;28;20044;-62
2022/01/12 07:41:44;;;;;;;13.77;8.68;;;;;;;-2.43;100.00;96625.97;4987925;28;20105;-58
2022/01/12 07:44:10;;;;;;;14.75;8.48;;;;;;;-2.46;100.00;96633.31;4991174;28;20423;-62
2022/01/12 07:46:37;;;;;;;15.70;8.85;;;;;;;-2.43;100.00;96643.53;4970169;28;20116;-59
2022/01/12 07:49:03;;;;;;;16.45;9.68;;;;;;;-2.41;100.00;96649.44;4989666;28;20026;-62
2022/01/12 07:51:28;;;;;;;15.40;8.77;;;;;;;-2.40;100.00;96656.34;4989560;28;20455;-62
2022/01/12 07:53:53;;;;;;;14.50;8.80;;;;;;;-2.38;100.00;96657.88;4988170;28;20058;-61
2022/01/12 07:56:19;;;;;;;13.50;9.05;;;;;;;-2.38;100.00;96670.16;4989659;28;20079;-62
2022/01/12 07:58:44;;;;;;;15.57;9.15;;;;;;;-2.40;100.00;96674.72;4988120;28;20030;-60
2022/01/12 08:01:12;;;;;;;16.00;9.25;;;;;;;-2.41;100.00;96667.81;4989570;28;20481;-60
2022/01/12 08:03:37;;;;;;;15.70;9.25;;;;;;;-2.39;100.00;96671.09;4988156;28;20022;-63
2022/01/12 08:06:05;;;;;;;13.93;8.70;;;;;;;-2.43;100.00;96673.22;4989550;28;20080;-62
2022/01/12 08:08:30;;;;;;;16.33;10.15;;;;;;;-2.39;100.00;96673.72;4988107;28;20297;-60
2022/01/12 08:10:56;;;;;;;14.35;9.02;;;;;;;-2.38;100.00;96680.66;4988066;28;20087;-63
2022/01/12 08:13:21;;;;;;;15.45;9.80;;;;;;;-2.37;100.00;96677.06;4989003;28;20069;-62
2022/01/12 08:15:46;;;;;;;13.48;8.90;;;;;;;-2.36;100.00;96678.72;4989413;28;20053;-62
2022/01/12 08:18:12;;;;;;;15.07;9.73;;;;;;;-2.35;100.00;96678.56;4989342;28;20019;-62
2022/01/12 08:20:37;;;;;;;15.25;9.25;;;;;;;-2.33;100.00;96679.25;4989406;28;20035;-61
2022/01/12 08:23:05;;;;;;;14.05;8.82;;;;;;;-2.32;100.00;96682.69;4989113;28;20026;-61
2022/01/12 08:25:30;;;;;;;18.90;10.52;;;;;;;-2.29;100.00;96686.81;4989138;28;20101;-60
2022/01/12 08:27:56;;;;;;;15.75;9.73;;;;;;;-2.30;100.00;96685.16;4989304;28;20134;-60
2022/01/12 08:30:28;;;;;;;15.40;9.90;;;;;;;-2.25;100.00;96690.81;4989181;28;20501;-62
2022/01/12 08:32:55;;;;;;;16.13;9.73;;;;;;;-2.28;100.00;96686.69;4988806;28;20480;-58
2022/01/12 08:35:20;;;;;;;15.63;9.13;;;;;;;-2.33;100.00;96688.91;4989204;28;20044;-60
2022/01/12 08:37:47;;;;;;;17.58;10.27;;;;;;;-2.29;100.00;96682.38;4987094;28;20026;-60
2022/01/12 08:40:16;;;;;;;15.07;9.10;;;;;;;-2.26;100.00;96681.28;5004869;28;20033;-62
2022/01/12 08:42:45;;;;;;;15.82;9.75;;;;;;;-2.26;100.00;96678.66;5008524;28;20034;-61
2022/01/12 08:45:15;;;;;;;16.90;9.93;;;;;;;-2.26;100.00;96690.00;5008595;28;20078;-62
2022/01/12 08:47:40;;;;;;;14.27;9.30;;;;;;;-2.32;100.00;96695.81;5008379;28;20100;-63
2022/01/12 08:50:09;;;;;;;16.00;9.27;;;;;;;-2.32;100.00;96690.56;5007607;28;20117;-60
2022/01/12 08:52:44;;;;;;;16.73;10.35;;;;;;;-2.33;100.00;96696.78;5006806;28;20038;-63
2022/01/12 08:55:09;;;;;;;15.70;9.38;;;;;;;-2.26;100.00;96699.66;5007193;28;20032;-62
2022/01/12 08:57:35;;;;;;;15.27;9.05;;;;;;;-2.31;100.00;96707.97;5008485;28;20460;-62
2022/01/12 09:00:00;;;;;;;16.25;9.80;;;;;;;-2.30;100.00;96709.59;5008310;28;20030;-60
2022/01/12 09:02:26;;;;;;;17.25;10.27;;;;;;;-2.30;100.00;96696.47;5006965;28;20065;-63
2022/01/12 09:04:52;;;;;;;15.18;9.48;;;;;;;-2.30;100.00;96719.28;5008301;28;20038;-61
2022/01/12 09:07:18;;;;;;;17.05;10.13;;;;;;;-2.34;100.00;96709.09;4998431;28;20027;-62
2022/01/12 09:09:46;;;;;;;17.73;9.65;;;;;;;-2.33;100.00;96710.72;4979868;28;20037;-62
2022/01/12 09:12:11;;;;;;;18.48;9.93;;;;;;;-2.37;100.00;96708.56;4988503;28;20034;-62
2022/01/12 09:14:36;;;;;;;15.32;9.45;;;;;;;-2.35;100.00;96715.31;4988387;28;20034;-62
2022/01/12 09:17:03;;;;;;;16.75;9.02;;;;;;;-2.35;100.00;96701.34;4987275;28;20022;-63
2022/01/12 09:19:29;;;;;;;14.63;9.32;;;;;;;-2.28;100.00;96699.81;4988939;28;20069;-62
2022/01/12 09:21:57;;;;;;;17.23;9.95;;;;;;;-2.25;100.00;96702.13;4986880;28;20034;-62
2022/01/12 09:24:23;;;;;;;15.88;9.48;;;;;;;-2.24;100.00;96698.53;4988609;28;20109;-62
2022/01/12 09:26:49;;;;;;;15.63;9.68;;;;;;;-2.27;100.00;96696.22;4967806;28;20504;-63
2022/01/12 09:29:14;;;;;;;16.00;9.52;;;;;;;-2.21;100.00;96687.75;4989284;28;20053;-63
2022/01/12 09:31:40;;;;;;;15.35;9.20;;;;;;;-2.11;100.00;96699.00;5007834;28;20025;-63
2022/01/12 09:34:08;;;;;;;17.20;9.57;;;;;;;-2.14;100.00;96695.88;5055545;22;20051;-66
2022/01/12 09:36:34;;;;;;;14.65;9.32;;;;;;;-2.17;100.00;96699.63;5068774;28;20039;-67
2022/01/12 09:39:01;;;;;;;15.70;9.35;;;;;;;-2.22;100.00;96703.63;5068863;28;20028;-67
2022/01/12 09:41:27;;;;;;;13.90;8.75;;;;;;;-2.28;100.00;96698.97;5070130;28;20027;-67
2022/01/12 09:43:54;;;;;;;14.00;8.40;;;;;;;-2.31;100.00;96710.59;5068600;28;20036;-67
2022/01/12 09:46:22;;;;;;;18.50;9.07;;;;;;;-2.28;100.00;96714.69;5068699;28;20028;-67
2022/01/12 09:48:47;;;;;;;15.18;9.07;;;;;;;-2.25;100.00;96709.19;5068564;28;20050;-65
2022/01/12 09:51:13;;;;;;;12.88;8.00;;;;;;;-2.33;100.00;96709.91;5068602;28;20021;-68
2022/01/12 09:53:40;;;;;;;11.35;7.50;;;;;;;-2.41;100.00;96710.63;5070092;28;20367;-67
2022/01/12 09:56:16;;;;;;;13.85;8.15;;;;;;;-2.46;100.00;96705.00;5068966;28;20513;-67
2022/01/12 09:58:42;;;;;;;13.50;8.07;;;;;;;-2.49;100.00;96696.59;5068837;28;20489;-67
2022/01/12 10:01:09;;;;;;;12.93;8.02;;;;;;;-2.48;100.00;96700.88;5068628;28;20025;-67
2022/01/12 10:03:35;;;;;;;11.95;8.23;;;;;;;-2.51;100.00;96698.50;5069832;28;20064;-67
2022/01/12 10:06:12;;;;;;;13.82;8.35;;;;;;;-2.39;100.00;96694.72;5070174;28;20330;-67
2022/01/12 10:08:37;;;;;;;16.83;9.32;;;;;;;-2.24;100.00;96698.53;5068622;28;20028;-66
2022/01/12 10:11:05;;;;;;;11.68;7.53;;;;;;;-2.18;100.00;96697.94;5069913;28;20101;-67
2022/01/12 10:13:34;;;;;;;13.93;8.88;;;;;;;-1.83;100.00;96685.88;5069757;28;20017;-67
2022/01/12 10:16:20;;;;;;;12.85;7.78;;;;;;;-1.74;100.00;96661.31;5069797;28;20024;-66
2022/01/12 10:18:47;;;;;;;14.98;9.15;;;;;;;-1.73;100.00;96656.91;5068523;28;20028;-67
2022/01/12 10:21:36;;;;;;;13.35;7.90;;;;;;;-1.67;100.00;96643.16;5070212;28;20032;-67
2022/01/12 10:24:10;;;;;;;11.20;7.68;;;;;;;-1.43;100.00;96640.72;5069757;28;20029;-66
2022/01/12 10:26:44;;;;;;;14.15;8.20;;;;;;;-1.15;100.00;96632.75;5069598;28;20543;-66
2022/01/12 10:29:09;;;;;;;13.75;7.97;;;;;;;-1.19;100.00;96629.59;5068492;28;20231;-66
2022/01/12 10:31:58;;;;;;;13.48;8.23;;;;;;;-1.30;100.00;96629.84;5068406;28;20129;-67
2022/01/12 10:34:40;;;;;;;13.88;8.43;;;;;;;-1.64;100.00;96619.22;5069288;28;20049;-65
2022/01/12 10:37:16;;;;;;;13.20;8.20;;;;;;;-1.76;100.00;96608.13;5069712;28;20139;-67
2022/01/12 10:39:44;;;;;;;13.27;8.15;;;;;;;-1.84;100.00;96600.19;5069801;28;20028;-67
2022/01/12 10:42:12;;;;;;;14.18;8.55;;;;;;;-1.58;100.00;96605.47;5064893;28;21005;-66
2022/01/12 10:44:44;;;;;;;13.32;8.60;;;;;;;-1.15;100.00;96616.97;5067352;28;20474;-67
2022/01/12 10:47:13;;;;;;;14.85;7.75;;;;;;;-0.89;100.00;96604.63;5068655;28;20510;-65
2022/01/12 10:50:01;;;;;;;13.30;8.30;;;;;;;-0.72;100.00;96621.31;5068854;28;20495;-67
2022/01/12 10:52:39;;;;;;;13.98;8.00;;;;;;;-0.74;100.00;96629.38;5064443;28;20048;-66
2022/01/12 10:55:06;;;;;;;13.45;8.52;;;;;;;-0.62;100.00;96625.47;5067592;28;20073;-67
2022/01/12 10:57:34;;;;;;;15.00;8.68;;;;;;;-0.44;100.00;96614.84;5067829;28;20262;-64
2022/01/12 11:00:22;;;;;;;14.38;7.80;;;;;;;-0.25;100.00;96621.66;5066685;28;20198;-67
2022/01/12 11:03:02;;;;;;;11.63;7.75;;;;;;;0.15;100.00;96620.13;5071875;28;20482;-66
2022/01/12 11:05:29;;;;;;;14.50;8.82;;;;;;;0.38;100.00;96625.59;5070831;28;20033;-67
2022/01/12 11:07:54;;;;;;;12.75;8.10;;;;;;;0.54;100.00;96636.13;5070955;28;20028;-67
2022/01/12 11:10:21;;;;;;;16.02;8.65;;;;;;;0.75;100.00;96628.53;5071389;28;20378;-67
2022/01/12 11:12:48;;;;;;;15.18;9.35;;;;;;;0.82;100.00;96629.53;5071255;28;20027;-67
2022/01/12 11:15:17;;;;;;;13.98;8.25;;;;;;;0.54;100.00;96629.06;5069848;28;20059;-67
2022/01/12 11:17:45;;;;;;;14.73;9.25;;;;;;;0.11;100.00;96634.59;5068979;28;20028;-68
2022/01/12 11:20:25;;;;;;;12.75;8.20;;;;;;;0.05;100.00;96637.88;5064966;28;20027;-68
2022/01/12 11:22:59;;;;;;;12.85;8.20;;;;;;;0.04;100.00;96649.41;5069400;28;20061;-68
2022/01/12 11:25:31;;;;;;;13.70;8.35;;;;;;;0.40;100.00;96656.06;5071249;28;20425;-68
2022/01/12 11:28:26;;;;;;;15.50;8.73;;;;;;;0.29;100.00;96651.91;5071241;28;20049;-68
2022/01/12 11:30:54;;;;;;;13.50;8.57;;;;;;;0.01;100.00;96657.66;5071748;28;20102;-68
2022/01/12 11:33:44;;;;;;;12.57;7.85;;;;;;;-0.09;100.00;96660.41;5071900;28;20075;-68
2022/01/12 11:36:17;;;;;;;13.57;9.10;;;;;;;-0.14;100.00;96650.34;5061746;28;20033;-68
2022/01/12 11:38:47;;;;;;;12.65;8.68;;;;;;;-0.17;100.00;96658.56;5073318;28;20103;-68
2022/01/12 11:41:24;;;;;;;13.52;8.30;;;;;;;-0.51;100.00;96661.22;5072702;28;20420;-68
2022/01/12 11:43:53;;;;;;;12.43;8.05;;;;;;;-0.40;100.00;96662.75;5070889;28;20028;-68
2022/01/12 11:46:22;;;;;;;14.27;8.63;;;;;;;-0.24;100.00;96648.81;5072230;28;20030;-68
2022/01/12 11:48:52;;;;;;;15.18;8.50;;;;;;;-0.23;100.00;96659.19;5072239;28;20108;-68
2022/01/12 11:51:20;;;;;;;14.75;9.60;;;;;;;0.06;100.00;96658.78;5068316;28;20894;-68
2022/01/12 11:53:51;;;;;;;14.23;9.00;;;;;;;0.26;100.00;96668.06;5063687;28;20035;-68
2022/01/12 11:56:21;;;;;;;13.38;9.13;;;;;;;0.52;100.00;96667.09;5064807;28;20032;-68
2022/01/12 11:58:56;;;;;;;15.48;9.10;;;;;;;0.90;100.00;96673.56;5070073;28;20355;-68
2022/01/12 12:01:24;;;;;;;14.50;8.77;;;;;;;1.08;100.00;96682.09;5071770;28;20073;-68
2022/01/12 12:04:01;;;;;;;14.45;9.32;;;;;;;1.33;100.00;96682.91;5071746;28;20073;-69
2022/01/12 12:06:27;;;;;;;16.23;9.15;;;;;;;1.27;100.00;96694.13;5071990;28;20038;-69
2022/01/12 12:08:57;;;;;;;16.08;9.20;;;;;;;1.26;100.00;96710.13;5070768;28;20032;-68
2022/01/12 12:11:28;;;;;;;13.55;8.75;;;;;;;1.08;100.00;96715.59;5068099;28;20021;-69
2022/01/12 12:13:59;;;;;;;15.80;9.55;;;;;;;0.96;100.00;96712.44;5068521;28;20391;-69
2022/01/12 12:16:25;;;;;;;14.75;9.35;;;;;;;0.80;100.00;96717.75;5071551;28;20021;-69
2022/01/12 12:18:50;;;;;;;15.68;9.65;;;;;;;0.77;100.00;96716.25;5070173;28;20065;-68
2022/01/12 12:21:16;;;;;;;12.70;8.55;;;;;;;0.57;100.00;96717.56;5071373;28;20234;-69
2022/01/12 12:23:41;;;;;;;16.48;9.40;;;;;;;0.49;100.00;96710.44;5071394;28;20017;-69
2022/01/12 12:26:08;;;;;;;14.45;9.38;;;;;;;0.53;100.00;96709.13;5071404;28;20021;-68
2022/01/12 12:28:34;;;;;;;14.30;9.18;;;;;;;0.30;100.00;96718.63;5071519;28;20261;-68
2022/01/12 12:31:01;;;;;;;13.82;9.23;;;;;;;-0.22;100.00;96718.78;5069852;28;20604;-69
2022/01/12 12:33:29;;;;;;;15.00;9.30;;;;;;;-0.34;100.00;96707.69;5068476;28;20523;-69
2022/01/12 12:35:54;;;;;;;14.52;8.70;;;;;;;-0.01;100.00;96692.03;5065402;28;20035;-68
2022/01/12 12:38:20;;;;;;;13.63;9.27;;;;;;;0.32;100.00;96685.03;5068851;28;20029;-68
2022/01/12 12:40:50;;;;;;;15.20;8.93;;;;;;;0.72;100.00;96671.06;5067162;28;20449;-68
2022/01/12 12:43:24;;;;;;;15.85;9.90;;;;;;;0.78;100.00;96675.72;5056497;28;20116;-68
2022/01/12 12:45:52;;;;;;;13.63;8.90;;;;;;;0.52;100.00;96680.28;5070922;28;20024;-68